sensor_id;sensor_type;location;lat;lon;timestamp;P1;durP1;ratioP1;P2;durP2;ratioP2
1346;SDS011;667;48.796;9.480;2023-02-28T00:00:22;3.30;;;3.00;;
1346;SDS011;667;48.796;9.480;2023-02-28T00:02:48;3.95;;;2.95;;
1346;SDS011;667;48.796;9.480;2023-02-28T00:05:15;3.60;;;2.90;;
1346;SDS011;667;48.796;9.480;2023-02-28T00:07:45;2.95;;;2.75;;
1346;SDS011;667;48.796;9.480;2023-02-28T00:10:13;4.65;;;3.42;;
1346;SDS011;667;48.796;9.480;2023-02-28T00:12:45;5.85;;;3.25;;
1346;SDS011;667;48.796;9.480;2023-02-28T00:15:18;5.35;;;3.47;;
1346;SDS011;667;48.796;9.480;2023-02-28T00:17:45;6.05;;;3.55;;
1346;SDS011;667;48.796;9.480;2023-02-28T00:20:10;4.00;;;3.20;;
1346;SDS011;667;48.796;9.480;2023-02-28T00:22:38;8.32;;;3.88;;
1346;SDS011;667;48.796;9.480;2023-02-28T00:25:04;3.00;;;2.70;;
1346;SDS011;667;48.796;9.480;2023-02-28T00:27:32;6.43;;;3.40;;
1346;SDS011;667;48.796;9.480;2023-02-28T00:29:58;3.78;;;3.47;;
1346;SDS011;667;48.796;9.480;2023-02-28T00:32:23;4.20;;;3.67;;
1346;SDS011;667;48.796;9.480;2023-02-28T00:34:49;6.07;;;4.03;;
1346;SDS011;667;48.796;9.480;2023-02-28T00:37:15;5.47;;;3.27;;
1346;SDS011;667;48.796;9.480;2023-02-28T00:39:40;4.20;;;3.43;;
1346;SDS011;667;48.796;9.480;2023-02-28T00:42:06;4.37;;;3.23;;
1346;SDS011;667;48.796;9.480;2023-02-28T00:44:32;3.63;;;3.33;;
1346;SDS011;667;48.796;9.480;2023-02-28T00:46:58;4.60;;;3.20;;
1346;SDS011;667;48.796;9.480;2023-02-28T00:49:25;4.72;;;3.45;;
1346;SDS011;667;48.796;9.480;2023-02-28T00:51:51;5.13;;;3.97;;
1346;SDS011;667;48.796;9.480;2023-02-28T00:54:17;5.40;;;3.70;;
1346;SDS011;667;48.796;9.480;2023-02-28T00:56:43;4.63;;;3.70;;
1346;SDS011;667;48.796;9.480;2023-02-28T00:59:10;3.50;;;3.15;;
1346;SDS011;667;48.796;9.480;2023-02-28T01:01:37;4.35;;;3.72;;
1346;SDS011;667;48.796;9.480;2023-02-28T01:04:02;5.43;;;3.87;;
1346;SDS011;667;48.796;9.480;2023-02-28T01:06:28;4.30;;;3.90;;
1346;SDS011;667;48.796;9.480;2023-02-28T01:08:54;4.33;;;3.93;;
1346;SDS011;667;48.796;9.480;2023-02-28T01:11:19;6.33;;;4.30;;
1346;SDS011;667;48.796;9.480;2023-02-28T01:13:45;6.27;;;4.30;;
1346;SDS011;667;48.796;9.480;2023-02-28T01:16:11;4.10;;;3.70;;
1346;SDS011;667;48.796;9.480;2023-02-28T01:18:39;5.28;;;3.78;;
1346;SDS011;667;48.796;9.480;2023-02-28T01:21:06;4.50;;;4.10;;
1346;SDS011;667;48.796;9.480;2023-02-28T01:23:33;7.00;;;4.47;;
1346;SDS011;667;48.796;9.480;2023-02-28T01:26:03;4.40;;;3.60;;
1346;SDS011;667;48.796;9.480;2023-02-28T01:28:32;4.65;;;4.15;;
1346;SDS011;667;48.796;9.480;2023-02-28T01:30:58;7.27;;;4.80;;
1346;SDS011;667;48.796;9.480;2023-02-28T01:33:24;4.73;;;4.30;;
1346;SDS011;667;48.796;9.480;2023-02-28T01:35:56;6.82;;;4.53;;
1346;SDS011;667;48.796;9.480;2023-02-28T01:38:26;6.32;;;4.50;;
1346;SDS011;667;48.796;9.480;2023-02-28T01:40:52;5.10;;;4.60;;
1346;SDS011;667;48.796;9.480;2023-02-28T01:45:48;7.53;;;4.28;;
1346;SDS011;667;48.796;9.480;2023-02-28T01:48:13;5.13;;;4.63;;
1346;SDS011;667;48.796;9.480;2023-02-28T01:50:39;5.37;;;4.37;;
1346;SDS011;667;48.796;9.480;2023-02-28T01:53:10;4.75;;;4.15;;
1346;SDS011;667;48.796;9.480;2023-02-28T01:55:39;4.75;;;3.90;;
1346;SDS011;667;48.796;9.480;2023-02-28T01:58:08;5.15;;;4.32;;
1346;SDS011;667;48.796;9.480;2023-02-28T02:00:34;4.97;;;4.57;;
1346;SDS011;667;48.796;9.480;2023-02-28T02:03:02;6.80;;;4.75;;
1346;SDS011;667;48.796;9.480;2023-02-28T02:05:33;4.78;;;3.53;;
1346;SDS011;667;48.796;9.480;2023-02-28T02:08:03;3.80;;;3.50;;
1346;SDS011;667;48.796;9.480;2023-02-28T02:10:35;7.72;;;4.53;;
1346;SDS011;667;48.796;9.480;2023-02-28T02:15:43;6.05;;;4.40;;
1346;SDS011;667;48.796;9.480;2023-02-28T02:38:13;6.20;;;4.90;;
1346;SDS011;667;48.796;9.480;2023-02-28T02:43:49;5.47;;;4.28;;
1346;SDS011;667;48.796;9.480;2023-02-28T02:46:26;4.75;;;4.35;;
1346;SDS011;667;48.796;9.480;2023-02-28T02:48:54;4.20;;;3.80;;
1346;SDS011;667;48.796;9.480;2023-02-28T02:51:23;4.90;;;4.40;;
1346;SDS011;667;48.796;9.480;2023-02-28T02:53:51;5.18;;;4.35;;
1346;SDS011;667;48.796;9.480;2023-02-28T02:56:24;6.22;;;3.75;;
1346;SDS011;667;48.796;9.480;2023-02-28T02:58:54;5.20;;;4.35;;
1346;SDS011;667;48.796;9.480;2023-02-28T03:01:26;5.60;;;4.35;;
1346;SDS011;667;48.796;9.480;2023-02-28T03:03:56;4.80;;;4.40;;
1346;SDS011;667;48.796;9.480;2023-02-28T03:06:26;5.32;;;4.80;;
1346;SDS011;667;48.796;9.480;2023-02-28T03:08:52;6.75;;;4.45;;
1346;SDS011;667;48.796;9.480;2023-02-28T03:11:18;4.70;;;4.27;;
1346;SDS011;667;48.796;9.480;2023-02-28T03:20:06;4.18;;;3.78;;
1346;SDS011;667;48.796;9.480;2023-02-28T03:22:43;5.00;;;4.50;;
1346;SDS011;667;48.796;9.480;2023-02-28T03:27:56;7.03;;;4.47;;
1346;SDS011;667;48.796;9.480;2023-02-28T03:33:17;4.97;;;4.57;;
1346;SDS011;667;48.796;9.480;2023-02-28T03:36:07;5.40;;;4.82;;
1346;SDS011;667;48.796;9.480;2023-02-28T03:38:41;9.90;;;5.20;;
1346;SDS011;667;48.796;9.480;2023-02-28T03:44:01;5.78;;;5.20;;
1346;SDS011;667;48.796;9.480;2023-02-28T03:46:31;5.50;;;4.30;;
1346;SDS011;667;48.796;9.480;2023-02-28T03:49:11;6.63;;;5.65;;
1346;SDS011;667;48.796;9.480;2023-02-28T03:51:45;4.85;;;4.30;;
1346;SDS011;667;48.796;9.480;2023-02-28T03:54:14;6.75;;;4.97;;
1346;SDS011;667;48.796;9.480;2023-02-28T03:56:45;5.10;;;4.68;;
1346;SDS011;667;48.796;9.480;2023-02-28T04:02:02;4.68;;;4.18;;
1346;SDS011;667;48.796;9.480;2023-02-28T04:04:28;5.70;;;5.07;;
1346;SDS011;667;48.796;9.480;2023-02-28T04:07:00;6.93;;;4.80;;
1346;SDS011;667;48.796;9.480;2023-02-28T04:09:28;9.15;;;4.82;;
1346;SDS011;667;48.796;9.480;2023-02-28T04:11:54;6.27;;;5.17;;
1346;SDS011;667;48.796;9.480;2023-02-28T04:14:23;6.97;;;5.50;;
1346;SDS011;667;48.796;9.480;2023-02-28T04:16:49;6.65;;;5.40;;
1346;SDS011;667;48.796;9.480;2023-02-28T04:19:15;7.68;;;4.97;;
1346;SDS011;667;48.796;9.480;2023-02-28T04:21:42;5.90;;;5.20;;
1346;SDS011;667;48.796;9.480;2023-02-28T04:24:14;7.22;;;5.82;;
1346;SDS011;667;48.796;9.480;2023-02-28T04:26:43;5.45;;;4.95;;
1346;SDS011;667;48.796;9.480;2023-02-28T04:29:11;5.30;;;4.80;;
1346;SDS011;667;48.796;9.480;2023-02-28T04:31:38;5.88;;;5.20;;
1346;SDS011;667;48.796;9.480;2023-02-28T04:34:04;5.90;;;5.20;;
1346;SDS011;667;48.796;9.480;2023-02-28T04:36:30;5.83;;;5.00;;
1346;SDS011;667;48.796;9.480;2023-02-28T04:38:55;6.90;;;5.33;;
1346;SDS011;667;48.796;9.480;2023-02-28T04:41:21;5.90;;;5.20;;
1346;SDS011;667;48.796;9.480;2023-02-28T04:43:47;6.45;;;5.10;;
1346;SDS011;667;48.796;9.480;2023-02-28T04:46:13;6.27;;;5.47;;
1346;SDS011;667;48.796;9.480;2023-02-28T04:48:39;7.30;;;5.50;;
1346;SDS011;667;48.796;9.480;2023-02-28T04:51:07;7.35;;;5.40;;
1346;SDS011;667;48.796;9.480;2023-02-28T04:53:35;7.47;;;6.15;;
1346;SDS011;667;48.796;9.480;2023-02-28T04:56:02;7.25;;;5.47;;
1346;SDS011;667;48.796;9.480;2023-02-28T04:58:28;5.32;;;4.88;;
1346;SDS011;667;48.796;9.480;2023-02-28T05:00:56;8.93;;;6.15;;
1346;SDS011;667;48.796;9.480;2023-02-28T05:03:43;6.85;;;5.43;;
1346;SDS011;667;48.796;9.480;2023-02-28T05:06:09;6.35;;;5.60;;
1346;SDS011;667;48.796;9.480;2023-02-28T05:08:35;8.60;;;6.10;;
1346;SDS011;667;48.796;9.480;2023-02-28T05:11:01;6.40;;;5.57;;
1346;SDS011;667;48.796;9.480;2023-02-28T05:13:27;7.53;;;5.80;;
1346;SDS011;667;48.796;9.480;2023-02-28T05:15:53;8.17;;;6.00;;
1346;SDS011;667;48.796;9.480;2023-02-28T05:18:19;7.00;;;5.68;;
1346;SDS011;667;48.796;9.480;2023-02-28T05:20:45;6.63;;;5.53;;
1346;SDS011;667;48.796;9.480;2023-02-28T05:23:11;7.20;;;6.03;;
1346;SDS011;667;48.796;9.480;2023-02-28T05:25:38;9.52;;;6.28;;
1346;SDS011;667;48.796;9.480;2023-02-28T05:28:05;7.45;;;6.65;;
1346;SDS011;667;48.796;9.480;2023-02-28T05:30:31;6.95;;;6.25;;
1346;SDS011;667;48.796;9.480;2023-02-28T05:32:56;7.47;;;6.47;;
1346;SDS011;667;48.796;9.480;2023-02-28T05:35:23;9.18;;;6.60;;
1346;SDS011;667;48.796;9.480;2023-02-28T05:37:49;7.28;;;6.57;;
1346;SDS011;667;48.796;9.480;2023-02-28T05:40:15;7.67;;;5.93;;
1346;SDS011;667;48.796;9.480;2023-02-28T05:42:41;8.13;;;6.67;;
1346;SDS011;667;48.796;9.480;2023-02-28T05:45:07;7.57;;;6.50;;
1346;SDS011;667;48.796;9.480;2023-02-28T05:47:33;7.35;;;6.38;;
1346;SDS011;667;48.796;9.480;2023-02-28T05:49:59;7.68;;;6.88;;
1346;SDS011;667;48.796;9.480;2023-02-28T05:52:26;8.15;;;6.30;;
1346;SDS011;667;48.796;9.480;2023-02-28T05:54:51;8.05;;;6.55;;
1346;SDS011;667;48.796;9.480;2023-02-28T05:57:17;7.57;;;6.20;;
1346;SDS011;667;48.796;9.480;2023-02-28T05:59:42;7.00;;;6.10;;
1346;SDS011;667;48.796;9.480;2023-02-28T06:02:17;7.13;;;6.43;;
1346;SDS011;667;48.796;9.480;2023-02-28T06:04:43;8.30;;;6.20;;
1346;SDS011;667;48.796;9.480;2023-02-28T06:07:09;7.57;;;6.88;;
1346;SDS011;667;48.796;9.480;2023-02-28T06:09:35;11.15;;;7.13;;
1346;SDS011;667;48.796;9.480;2023-02-28T06:12:02;7.65;;;5.80;;
1346;SDS011;667;48.796;9.480;2023-02-28T06:14:30;7.28;;;6.57;;
1346;SDS011;667;48.796;9.480;2023-02-28T06:16:57;9.13;;;7.18;;
1346;SDS011;667;48.796;9.480;2023-02-28T06:19:24;10.00;;;7.07;;
1346;SDS011;667;48.796;9.480;2023-02-28T06:21:53;9.10;;;7.00;;
1346;SDS011;667;48.796;9.480;2023-02-28T06:24:20;9.80;;;7.03;;
1346;SDS011;667;48.796;9.480;2023-02-28T06:26:46;6.80;;;6.00;;
1346;SDS011;667;48.796;9.480;2023-02-28T06:29:12;7.20;;;6.50;;
1346;SDS011;667;48.796;9.480;2023-02-28T06:31:43;7.63;;;6.68;;
1346;SDS011;667;48.796;9.480;2023-02-28T06:34:09;7.35;;;6.60;;
1346;SDS011;667;48.796;9.480;2023-02-28T06:36:38;9.43;;;7.75;;
1346;SDS011;667;48.796;9.480;2023-02-28T06:39:05;6.90;;;6.18;;
1346;SDS011;667;48.796;9.480;2023-02-28T06:41:31;8.90;;;7.32;;
1346;SDS011;667;48.796;9.480;2023-02-28T06:44:13;9.40;;;7.85;;
1346;SDS011;667;48.796;9.480;2023-02-28T06:46:42;9.57;;;6.93;;
1346;SDS011;667;48.796;9.480;2023-02-28T06:49:09;9.48;;;7.15;;
1346;SDS011;667;48.796;9.480;2023-02-28T06:51:37;8.27;;;6.70;;
1346;SDS011;667;48.796;9.480;2023-02-28T06:54:04;7.90;;;6.72;;
1346;SDS011;667;48.796;9.480;2023-02-28T06:56:33;8.57;;;7.57;;
1346;SDS011;667;48.796;9.480;2023-02-28T06:58:59;10.05;;;8.50;;
1346;SDS011;667;48.796;9.480;2023-02-28T07:01:25;9.30;;;7.90;;
1346;SDS011;667;48.796;9.480;2023-02-28T07:03:52;11.48;;;9.27;;
1346;SDS011;667;48.796;9.480;2023-02-28T07:06:19;8.23;;;7.10;;
1346;SDS011;667;48.796;9.480;2023-02-28T07:08:47;8.25;;;7.53;;
1346;SDS011;667;48.796;9.480;2023-02-28T07:11:14;11.85;;;8.80;;
1346;SDS011;667;48.796;9.480;2023-02-28T07:13:40;9.32;;;8.38;;
1346;SDS011;667;48.796;9.480;2023-02-28T07:16:06;9.80;;;7.87;;
1346;SDS011;667;48.796;9.480;2023-02-28T07:18:35;10.55;;;7.72;;
1346;SDS011;667;48.796;9.480;2023-02-28T07:21:02;9.07;;;7.70;;
1346;SDS011;667;48.796;9.480;2023-02-28T07:23:32;11.57;;;7.75;;
1346;SDS011;667;48.796;9.480;2023-02-28T07:25:58;8.53;;;7.63;;
1346;SDS011;667;48.796;9.480;2023-02-28T07:28:24;9.98;;;8.63;;
1346;SDS011;667;48.796;9.480;2023-02-28T07:30:50;9.90;;;8.00;;
1346;SDS011;667;48.796;9.480;2023-02-28T07:33:15;11.37;;;8.33;;
1346;SDS011;667;48.796;9.480;2023-02-28T07:35:41;10.93;;;8.00;;
1346;SDS011;667;48.796;9.480;2023-02-28T07:38:07;9.03;;;8.13;;
1346;SDS011;667;48.796;9.480;2023-02-28T07:40:33;9.40;;;7.17;;
1346;SDS011;667;48.796;9.480;2023-02-28T07:43:00;9.68;;;7.97;;
1346;SDS011;667;48.796;9.480;2023-02-28T07:45:26;11.23;;;8.45;;
1346;SDS011;667;48.796;9.480;2023-02-28T07:47:54;10.85;;;9.00;;
1346;SDS011;667;48.796;9.480;2023-02-28T07:50:19;8.15;;;7.35;;
1346;SDS011;667;48.796;9.480;2023-02-28T07:52:45;9.77;;;7.93;;
1346;SDS011;667;48.796;9.480;2023-02-28T07:55:11;12.07;;;10.00;;
1346;SDS011;667;48.796;9.480;2023-02-28T07:57:37;13.48;;;8.75;;
1346;SDS011;667;48.796;9.480;2023-02-28T08:00:04;10.70;;;9.10;;
1346;SDS011;667;48.796;9.480;2023-02-28T08:02:31;9.65;;;8.40;;
1346;SDS011;667;48.796;9.480;2023-02-28T08:04:57;10.57;;;8.10;;
1346;SDS011;667;48.796;9.480;2023-02-28T08:07:22;10.57;;;8.17;;
1346;SDS011;667;48.796;9.480;2023-02-28T08:09:48;9.03;;;7.10;;
1346;SDS011;667;48.796;9.480;2023-02-28T08:12:13;9.17;;;7.87;;
1346;SDS011;667;48.796;9.480;2023-02-28T08:14:39;9.77;;;8.77;;
1346;SDS011;667;48.796;9.480;2023-02-28T08:17:05;10.80;;;7.80;;
1346;SDS011;667;48.796;9.480;2023-02-28T08:19:31;12.00;;;8.00;;
1346;SDS011;667;48.796;9.480;2023-02-28T08:21:57;11.73;;;8.25;;
1346;SDS011;667;48.796;9.480;2023-02-28T08:24:23;11.65;;;9.20;;
1346;SDS011;667;48.796;9.480;2023-02-28T08:26:49;10.20;;;8.00;;
1346;SDS011;667;48.796;9.480;2023-02-28T08:29:14;10.33;;;8.80;;
1346;SDS011;667;48.796;9.480;2023-02-28T08:31:40;9.57;;;8.07;;
1346;SDS011;667;48.796;9.480;2023-02-28T08:34:10;10.35;;;8.93;;
1346;SDS011;667;48.796;9.480;2023-02-28T08:36:37;9.25;;;7.90;;
1346;SDS011;667;48.796;9.480;2023-02-28T08:39:04;12.13;;;8.77;;
1346;SDS011;667;48.796;9.480;2023-02-28T08:41:30;10.02;;;8.05;;
1346;SDS011;667;48.796;9.480;2023-02-28T08:43:56;12.98;;;8.68;;
1346;SDS011;667;48.796;9.480;2023-02-28T08:46:22;10.80;;;8.43;;
1346;SDS011;667;48.796;9.480;2023-02-28T08:48:51;10.82;;;9.73;;
1346;SDS011;667;48.796;9.480;2023-02-28T08:51:18;10.90;;;9.05;;
1346;SDS011;667;48.796;9.480;2023-02-28T08:53:51;9.90;;;8.02;;
1346;SDS011;667;48.796;9.480;2023-02-28T08:56:18;10.52;;;7.88;;
1346;SDS011;667;48.796;9.480;2023-02-28T08:58:44;8.73;;;7.20;;
1346;SDS011;667;48.796;9.480;2023-02-28T09:03:52;12.27;;;10.00;;
1346;SDS011;667;48.796;9.480;2023-02-28T09:06:19;12.15;;;9.05;;
1346;SDS011;667;48.796;9.480;2023-02-28T09:08:45;12.00;;;8.02;;
1346;SDS011;667;48.796;9.480;2023-02-28T09:11:11;12.60;;;9.73;;
1346;SDS011;667;48.796;9.480;2023-02-28T09:13:37;13.07;;;8.15;;
1346;SDS011;667;48.796;9.480;2023-02-28T09:16:04;10.27;;;8.98;;
1346;SDS011;667;48.796;9.480;2023-02-28T09:18:31;13.23;;;9.38;;
1346;SDS011;667;48.796;9.480;2023-02-28T09:20:59;9.48;;;8.48;;
1346;SDS011;667;48.796;9.480;2023-02-28T09:23:28;11.75;;;9.02;;
1346;SDS011;667;48.796;9.480;2023-02-28T09:25:54;11.00;;;9.17;;
1346;SDS011;667;48.796;9.480;2023-02-28T09:28:20;10.20;;;8.83;;
1346;SDS011;667;48.796;9.480;2023-02-28T09:30:47;12.23;;;9.45;;
1346;SDS011;667;48.796;9.480;2023-02-28T09:33:14;13.30;;;9.05;;
1346;SDS011;667;48.796;9.480;2023-02-28T09:35:41;10.43;;;8.93;;
1346;SDS011;667;48.796;9.480;2023-02-28T09:38:08;11.13;;;8.95;;
1346;SDS011;667;48.796;9.480;2023-02-28T09:40:38;10.93;;;8.95;;
1346;SDS011;667;48.796;9.480;2023-02-28T09:43:12;12.85;;;8.63;;
1346;SDS011;667;48.796;9.480;2023-02-28T09:45:41;10.05;;;9.05;;
1346;SDS011;667;48.796;9.480;2023-02-28T09:48:18;11.82;;;9.13;;
1346;SDS011;667;48.796;9.480;2023-02-28T09:50:55;9.90;;;8.85;;
1346;SDS011;667;48.796;9.480;2023-02-28T09:53:34;12.13;;;9.50;;
1346;SDS011;667;48.796;9.480;2023-02-28T09:56:05;9.70;;;8.15;;
1346;SDS011;667;48.796;9.480;2023-02-28T10:01:34;10.95;;;9.40;;
1346;SDS011;667;48.796;9.480;2023-02-28T10:07:17;9.50;;;8.50;;
1346;SDS011;667;48.796;9.480;2023-02-28T10:10:04;11.02;;;9.50;;
1346;SDS011;667;48.796;9.480;2023-02-28T10:12:43;10.75;;;9.40;;
1346;SDS011;667;48.796;9.480;2023-02-28T10:15:13;10.40;;;9.30;;
1346;SDS011;667;48.796;9.480;2023-02-28T10:17:41;11.77;;;9.18;;
1346;SDS011;667;48.796;9.480;2023-02-28T10:20:11;10.55;;;9.15;;
1346;SDS011;667;48.796;9.480;2023-02-28T10:22:58;13.07;;;9.00;;
1346;SDS011;667;48.796;9.480;2023-02-28T10:25:32;10.52;;;9.43;;
1346;SDS011;667;48.796;9.480;2023-02-28T10:28:08;11.25;;;9.50;;
1346;SDS011;667;48.796;9.480;2023-02-28T10:30:42;10.52;;;8.80;;
1346;SDS011;667;48.796;9.480;2023-02-28T10:35:46;11.88;;;9.52;;
1346;SDS011;667;48.796;9.480;2023-02-28T10:38:45;11.80;;;9.30;;
1346;SDS011;667;48.796;9.480;2023-02-28T10:41:11;12.02;;;9.93;;
1346;SDS011;667;48.796;9.480;2023-02-28T10:43:42;11.27;;;9.15;;
1346;SDS011;667;48.796;9.480;2023-02-28T10:46:13;10.70;;;9.60;;
1346;SDS011;667;48.796;9.480;2023-02-28T10:48:57;12.52;;;10.50;;
1346;SDS011;667;48.796;9.480;2023-02-28T10:51:27;13.00;;;10.23;;
1346;SDS011;667;48.796;9.480;2023-02-28T10:54:01;15.23;;;10.40;;
1346;SDS011;667;48.796;9.480;2023-02-28T10:56:28;10.63;;;8.70;;
1346;SDS011;667;48.796;9.480;2023-02-28T10:58:55;10.57;;;9.57;;
1346;SDS011;667;48.796;9.480;2023-02-28T11:01:34;11.73;;;9.93;;
1346;SDS011;667;48.796;9.480;2023-02-28T11:04:12;11.30;;;10.10;;
1346;SDS011;667;48.796;9.480;2023-02-28T11:06:42;11.00;;;9.43;;
1346;SDS011;667;48.796;9.480;2023-02-28T11:09:19;10.57;;;9.57;;
1346;SDS011;667;48.796;9.480;2023-02-28T11:12:04;11.23;;;9.80;;
1346;SDS011;667;48.796;9.480;2023-02-28T11:14:47;12.45;;;10.13;;
1346;SDS011;667;48.796;9.480;2023-02-28T11:17:22;12.32;;;10.50;;
1346;SDS011;667;48.796;9.480;2023-02-28T11:19:51;11.55;;;10.27;;
1346;SDS011;667;48.796;9.480;2023-02-28T11:22:23;11.80;;;9.95;;
1346;SDS011;667;48.796;9.480;2023-02-28T11:24:53;12.32;;;11.02;;
1346;SDS011;667;48.796;9.480;2023-02-28T11:29:58;11.77;;;10.57;;
1346;SDS011;667;48.796;9.480;2023-02-28T11:32:25;11.80;;;9.52;;
1346;SDS011;667;48.796;9.480;2023-02-28T11:35:01;13.45;;;11.48;;
1346;SDS011;667;48.796;9.480;2023-02-28T11:37:38;12.18;;;10.10;;
1346;SDS011;667;48.796;9.480;2023-02-28T11:40:17;10.75;;;9.65;;
1346;SDS011;667;48.796;9.480;2023-02-28T11:42:52;11.60;;;9.85;;
1346;SDS011;667;48.796;9.480;2023-02-28T11:45:45;10.38;;;9.32;;
1346;SDS011;667;48.796;9.480;2023-02-28T11:48:23;11.73;;;10.13;;
1346;SDS011;667;48.796;9.480;2023-02-28T11:51:00;10.90;;;9.80;;
1346;SDS011;667;48.796;9.480;2023-02-28T11:54:04;13.45;;;9.98;;
1346;SDS011;667;48.796;9.480;2023-02-28T12:07:55;11.60;;;9.73;;
1346;SDS011;667;48.796;9.480;2023-02-28T12:10:26;10.40;;;9.30;;
1346;SDS011;667;48.796;9.480;2023-02-28T12:21:37;11.23;;;10.05;;
1346;SDS011;667;48.796;9.480;2023-02-28T12:24:21;10.55;;;9.43;;
1346;SDS011;667;48.796;9.480;2023-02-28T12:27:10;13.85;;;10.95;;
1346;SDS011;667;48.796;9.480;2023-02-28T12:30:02;11.93;;;9.55;;
1346;SDS011;667;48.796;9.480;2023-02-28T12:32:38;10.43;;;9.32;;
1346;SDS011;667;48.796;9.480;2023-02-28T12:35:14;10.80;;;9.70;;
1346;SDS011;667;48.796;9.480;2023-02-28T12:40:22;11.80;;;9.40;;
1346;SDS011;667;48.796;9.480;2023-02-28T12:42:56;11.93;;;9.80;;
1346;SDS011;667;48.796;9.480;2023-02-28T12:45:26;11.25;;;8.80;;
1346;SDS011;667;48.796;9.480;2023-02-28T12:48:02;12.15;;;10.27;;
1346;SDS011;667;48.796;9.480;2023-02-28T12:50:31;11.35;;;10.15;;
1346;SDS011;667;48.796;9.480;2023-02-28T13:06:28;9.77;;;8.77;;
1346;SDS011;667;48.796;9.480;2023-02-28T13:09:17;14.75;;;8.88;;
1346;SDS011;667;48.796;9.480;2023-02-28T13:14:29;11.20;;;8.50;;
1346;SDS011;667;48.796;9.480;2023-02-28T13:19:37;11.15;;;9.30;;
1346;SDS011;667;48.796;9.480;2023-02-28T13:22:17;10.50;;;9.45;;
1346;SDS011;667;48.796;9.480;2023-02-28T13:24:50;11.23;;;10.05;;
1346;SDS011;667;48.796;9.480;2023-02-28T13:30:00;10.60;;;9.52;;
1346;SDS011;667;48.796;9.480;2023-02-28T13:32:31;9.35;;;8.40;;
1346;SDS011;667;48.796;9.480;2023-02-28T13:43:01;10.20;;;9.20;;
1346;SDS011;667;48.796;9.480;2023-02-28T13:45:28;9.68;;;8.68;;
1346;SDS011;667;48.796;9.480;2023-02-28T13:48:04;12.32;;;10.93;;
1346;SDS011;667;48.796;9.480;2023-02-28T13:50:41;10.30;;;9.18;;
1346;SDS011;667;48.796;9.480;2023-02-28T14:01:15;10.55;;;9.35;;
1346;SDS011;667;48.796;9.480;2023-02-28T14:11:26;10.60;;;8.82;;
1346;SDS011;667;48.796;9.480;2023-02-28T14:13:54;10.52;;;9.45;;
1346;SDS011;667;48.796;9.480;2023-02-28T14:16:20;9.53;;;8.53;;
1346;SDS011;667;48.796;9.480;2023-02-28T14:18:58;11.45;;;9.68;;
1346;SDS011;667;48.796;9.480;2023-02-28T14:34:54;9.90;;;8.70;;
1346;SDS011;667;48.796;9.480;2023-02-28T14:37:33;9.38;;;8.43;;
1346;SDS011;667;48.796;9.480;2023-02-28T14:40:02;15.38;;;10.10;;
1346;SDS011;667;48.796;9.480;2023-02-28T14:42:36;10.77;;;9.40;;
1346;SDS011;667;48.796;9.480;2023-02-28T14:45:03;9.90;;;8.85;;
1346;SDS011;667;48.796;9.480;2023-02-28T14:47:33;9.57;;;8.38;;
1346;SDS011;667;48.796;9.480;2023-02-28T14:50:00;10.55;;;9.48;;
1346;SDS011;667;48.796;9.480;2023-02-28T14:52:29;12.20;;;9.20;;
1346;SDS011;667;48.796;9.480;2023-02-28T14:54:58;12.00;;;10.43;;
1346;SDS011;667;48.796;9.480;2023-02-28T14:57:26;11.40;;;10.20;;
1346;SDS011;667;48.796;9.480;2023-02-28T15:00:07;11.43;;;9.95;;
1346;SDS011;667;48.796;9.480;2023-02-28T15:02:40;11.68;;;9.15;;
1346;SDS011;667;48.796;9.480;2023-02-28T15:07:38;13.90;;;10.45;;
1346;SDS011;667;48.796;9.480;2023-02-28T15:10:15;11.95;;;9.27;;
1346;SDS011;667;48.796;9.480;2023-02-28T15:12:47;11.13;;;9.18;;
1346;SDS011;667;48.796;9.480;2023-02-28T15:15:18;10.88;;;9.65;;
1346;SDS011;667;48.796;9.480;2023-02-28T15:17:46;12.32;;;10.02;;
1346;SDS011;667;48.796;9.480;2023-02-28T15:20:16;13.73;;;10.77;;
1346;SDS011;667;48.796;9.480;2023-02-28T15:22:43;10.55;;;9.55;;
1346;SDS011;667;48.796;9.480;2023-02-28T15:25:13;12.25;;;9.65;;
1346;SDS011;667;48.796;9.480;2023-02-28T15:27:45;10.95;;;9.30;;
1346;SDS011;667;48.796;9.480;2023-02-28T15:30:15;13.27;;;10.45;;
1346;SDS011;667;48.796;9.480;2023-02-28T15:33:01;14.40;;;9.77;;
1346;SDS011;667;48.796;9.480;2023-02-28T15:35:33;11.20;;;8.30;;
1346;SDS011;667;48.796;9.480;2023-02-28T15:38:12;10.50;;;9.05;;
1346;SDS011;667;48.796;9.480;2023-02-28T15:40:42;11.30;;;9.65;;
1346;SDS011;667;48.796;9.480;2023-02-28T15:43:14;11.10;;;10.00;;
1346;SDS011;667;48.796;9.480;2023-02-28T15:45:51;11.63;;;9.60;;
1346;SDS011;667;48.796;9.480;2023-02-28T15:51:07;12.95;;;11.55;;
1346;SDS011;667;48.796;9.480;2023-02-28T15:53:49;11.63;;;10.20;;
1346;SDS011;667;48.796;9.480;2023-02-28T15:56:25;11.50;;;10.27;;
1346;SDS011;667;48.796;9.480;2023-02-28T15:58:59;13.75;;;11.50;;
1346;SDS011;667;48.796;9.480;2023-02-28T16:01:36;15.07;;;11.90;;
1346;SDS011;667;48.796;9.480;2023-02-28T16:04:24;10.98;;;9.80;;
1346;SDS011;667;48.796;9.480;2023-02-28T16:09:22;14.13;;;10.65;;
1346;SDS011;667;48.796;9.480;2023-02-28T16:11:49;10.97;;;9.87;;
1346;SDS011;667;48.796;9.480;2023-02-28T16:14:17;11.52;;;10.00;;
1346;SDS011;667;48.796;9.480;2023-02-28T16:16:46;13.38;;;10.35;;
1346;SDS011;667;48.796;9.480;2023-02-28T16:19:14;11.20;;;9.45;;
1346;SDS011;667;48.796;9.480;2023-02-28T16:21:40;13.87;;;10.40;;
1346;SDS011;667;48.796;9.480;2023-02-28T16:24:06;14.87;;;11.40;;
1346;SDS011;667;48.796;9.480;2023-02-28T16:26:32;12.70;;;9.38;;
1346;SDS011;667;48.796;9.480;2023-02-28T16:28:59;10.45;;;9.07;;
1346;SDS011;667;48.796;9.480;2023-02-28T16:31:25;13.18;;;11.43;;
1346;SDS011;667;48.796;9.480;2023-02-28T16:33:52;12.10;;;10.82;;
1346;SDS011;667;48.796;9.480;2023-02-28T16:36:19;9.77;;;8.77;;
1346;SDS011;667;48.796;9.480;2023-02-28T16:38:46;11.63;;;10.00;;
1346;SDS011;667;48.796;9.480;2023-02-28T16:41:13;11.43;;;10.33;;
1346;SDS011;667;48.796;9.480;2023-02-28T16:43:43;12.55;;;11.30;;
1346;SDS011;667;48.796;9.480;2023-02-28T16:46:10;11.27;;;9.05;;
1346;SDS011;667;48.796;9.480;2023-02-28T16:48:37;12.75;;;10.98;;
1346;SDS011;667;48.796;9.480;2023-02-28T16:51:03;11.93;;;10.57;;
1346;SDS011;667;48.796;9.480;2023-02-28T16:53:29;12.45;;;10.95;;
1346;SDS011;667;48.796;9.480;2023-02-28T16:55:55;12.17;;;10.10;;
1346;SDS011;667;48.796;9.480;2023-02-28T16:58:20;16.53;;;10.50;;
1346;SDS011;667;48.796;9.480;2023-02-28T17:00:50;12.32;;;10.30;;
1346;SDS011;667;48.796;9.480;2023-02-28T17:03:24;13.30;;;10.93;;
1346;SDS011;667;48.796;9.480;2023-02-28T17:05:51;16.23;;;12.23;;
1346;SDS011;667;48.796;9.480;2023-02-28T17:08:17;13.50;;;10.93;;
1346;SDS011;667;48.796;9.480;2023-02-28T17:10:43;17.37;;;11.60;;
1346;SDS011;667;48.796;9.480;2023-02-28T17:13:08;13.60;;;11.70;;
1346;SDS011;667;48.796;9.480;2023-02-28T17:15:34;13.83;;;11.17;;
1346;SDS011;667;48.796;9.480;2023-02-28T17:18:01;13.38;;;11.40;;
1346;SDS011;667;48.796;9.480;2023-02-28T17:20:26;14.03;;;12.53;;
1346;SDS011;667;48.796;9.480;2023-02-28T17:22:52;12.60;;;11.33;;
1346;SDS011;667;48.796;9.480;2023-02-28T17:25:19;12.88;;;11.10;;
1346;SDS011;667;48.796;9.480;2023-02-28T17:27:45;13.38;;;11.98;;
1346;SDS011;667;48.796;9.480;2023-02-28T17:32:37;16.65;;;13.13;;
1346;SDS011;667;48.796;9.480;2023-02-28T17:35:03;25.93;;;21.50;;
1346;SDS011;667;48.796;9.480;2023-02-28T17:37:29;16.80;;;15.10;;
1346;SDS011;667;48.796;9.480;2023-02-28T17:39:54;13.53;;;11.40;;
1346;SDS011;667;48.796;9.480;2023-02-28T17:42:20;11.60;;;10.23;;
1346;SDS011;667;48.796;9.480;2023-02-28T17:44:45;12.70;;;11.43;;
1346;SDS011;667;48.796;9.480;2023-02-28T17:47:11;11.70;;;9.37;;
1346;SDS011;667;48.796;9.480;2023-02-28T17:49:37;11.05;;;8.80;;
1346;SDS011;667;48.796;9.480;2023-02-28T17:52:03;13.50;;;10.47;;
1346;SDS011;667;48.796;9.480;2023-02-28T17:54:29;11.40;;;9.37;;
1346;SDS011;667;48.796;9.480;2023-02-28T17:56:54;12.20;;;10.90;;
1346;SDS011;667;48.796;9.480;2023-02-28T17:59:20;10.77;;;9.03;;
1346;SDS011;667;48.796;9.480;2023-02-28T18:01:45;10.00;;;8.40;;
1346;SDS011;667;48.796;9.480;2023-02-28T18:04:11;10.33;;;9.20;;